sensor_id;sensor_type;location;lat;lon;timestamp;P1;durP1;ratioP1;P2;durP2;ratioP2
3369;SDS011;42042;51.948;7.628;2023-06-22T00:02:02;14.37;;;12.97;;
3369;SDS011;42042;51.948;7.628;2023-06-22T00:04:31;13.23;;;12.03;;
3369;SDS011;42042;51.948;7.628;2023-06-22T00:06:58;12.80;;;11.50;;
3369;SDS011;42042;51.948;7.628;2023-06-22T00:09:25;12.30;;;11.20;;
3369;SDS011;42042;51.948;7.628;2023-06-22T00:11:52;14.20;;;12.83;;
3369;SDS011;42042;51.948;7.628;2023-06-22T00:14:20;14.23;;;12.53;;
3369;SDS011;42042;51.948;7.628;2023-06-22T00:16:47;13.30;;;12.00;;
3369;SDS011;42042;51.948;7.628;2023-06-22T00:19:14;15.33;;;13.83;;
3369;SDS011;42042;51.948;7.628;2023-06-22T00:21:43;15.33;;;14.00;;
3369;SDS011;42042;51.948;7.628;2023-06-22T00:24:12;14.00;;;12.80;;
3369;SDS011;42042;51.948;7.628;2023-06-22T00:26:39;14.40;;;12.90;;
3369;SDS011;42042;51.948;7.628;2023-06-22T00:29:06;14.67;;;13.37;;
3369;SDS011;42042;51.948;7.628;2023-06-22T00:31:33;15.33;;;13.70;;
3369;SDS011;42042;51.948;7.628;2023-06-22T00:34:00;14.17;;;12.87;;
3369;SDS011;42042;51.948;7.628;2023-06-22T00:36:27;12.30;;;11.20;;
3369;SDS011;42042;51.948;7.628;2023-06-22T00:38:56;14.47;;;13.07;;
3369;SDS011;42042;51.948;7.628;2023-06-22T00:41:23;14.83;;;13.33;;
3369;SDS011;42042;51.948;7.628;2023-06-22T00:43:53;15.00;;;13.70;;
3369;SDS011;42042;51.948;7.628;2023-06-22T00:46:20;15.27;;;13.30;;
3369;SDS011;42042;51.948;7.628;2023-06-22T00:48:48;18.53;;;12.93;;
3369;SDS011;42042;51.948;7.628;2023-06-22T00:51:16;14.30;;;12.90;;
3369;SDS011;42042;51.948;7.628;2023-06-22T00:53:49;13.97;;;12.67;;
3369;SDS011;42042;51.948;7.628;2023-06-22T00:56:18;15.23;;;13.23;;
3369;SDS011;42042;51.948;7.628;2023-06-22T00:58:49;14.57;;;12.87;;
3369;SDS011;42042;51.948;7.628;2023-06-22T01:01:18;15.70;;;13.80;;
3369;SDS011;42042;51.948;7.628;2023-06-22T01:03:48;14.17;;;12.83;;
3369;SDS011;42042;51.948;7.628;2023-06-22T01:06:16;16.40;;;14.70;;
3369;SDS011;42042;51.948;7.628;2023-06-22T01:08:46;15.37;;;13.77;;
3369;SDS011;42042;51.948;7.628;2023-06-22T01:11:18;16.43;;;14.47;;
3369;SDS011;42042;51.948;7.628;2023-06-22T01:13:48;15.40;;;14.00;;
3369;SDS011;42042;51.948;7.628;2023-06-22T01:16:18;15.53;;;13.80;;
3369;SDS011;42042;51.948;7.628;2023-06-22T01:18:46;16.17;;;14.20;;
3369;SDS011;42042;51.948;7.628;2023-06-22T01:21:16;15.40;;;14.00;;
3369;SDS011;42042;51.948;7.628;2023-06-22T01:23:50;14.87;;;13.37;;
3369;SDS011;42042;51.948;7.628;2023-06-22T01:26:21;14.73;;;13.40;;
3369;SDS011;42042;51.948;7.628;2023-06-22T01:28:53;20.80;;;14.80;;
3369;SDS011;42042;51.948;7.628;2023-06-22T01:31:22;14.70;;;13.40;;
3369;SDS011;42042;51.948;7.628;2023-06-22T01:33:51;21.50;;;13.70;;
3369;SDS011;42042;51.948;7.628;2023-06-22T01:36:19;14.90;;;13.50;;
3369;SDS011;42042;51.948;7.628;2023-06-22T01:38:46;16.07;;;14.57;;
3369;SDS011;42042;51.948;7.628;2023-06-22T01:41:14;16.37;;;14.77;;
3369;SDS011;42042;51.948;7.628;2023-06-22T01:43:42;15.73;;;14.23;;
3369;SDS011;42042;51.948;7.628;2023-06-22T01:46:10;15.90;;;14.50;;
3369;SDS011;42042;51.948;7.628;2023-06-22T01:48:38;14.83;;;13.33;;
3369;SDS011;42042;51.948;7.628;2023-06-22T01:51:06;18.40;;;15.10;;
3369;SDS011;42042;51.948;7.628;2023-06-22T01:53:34;16.80;;;15.27;;
3369;SDS011;42042;51.948;7.628;2023-06-22T01:56:01;14.50;;;13.10;;
3369;SDS011;42042;51.948;7.628;2023-06-22T01:58:29;15.20;;;13.70;;
3369;SDS011;42042;51.948;7.628;2023-06-22T02:00:58;16.27;;;14.70;;
3369;SDS011;42042;51.948;7.628;2023-06-22T02:03:31;16.27;;;14.73;;
3369;SDS011;42042;51.948;7.628;2023-06-22T02:06:01;15.57;;;14.17;;
3369;SDS011;42042;51.948;7.628;2023-06-22T02:08:30;15.87;;;14.30;;
3369;SDS011;42042;51.948;7.628;2023-06-22T02:10:59;16.50;;;15.00;;
3369;SDS011;42042;51.948;7.628;2023-06-22T02:13:26;17.80;;;16.00;;
3369;SDS011;42042;51.948;7.628;2023-06-22T02:15:54;16.17;;;14.67;;
3369;SDS011;42042;51.948;7.628;2023-06-22T02:18:21;16.53;;;14.93;;
3369;SDS011;42042;51.948;7.628;2023-06-22T02:20:50;18.17;;;15.50;;
3369;SDS011;42042;51.948;7.628;2023-06-22T02:23:17;16.37;;;14.87;;
3369;SDS011;42042;51.948;7.628;2023-06-22T02:25:45;16.23;;;14.73;;
3369;SDS011;42042;51.948;7.628;2023-06-22T02:28:12;17.03;;;15.37;;
3369;SDS011;42042;51.948;7.628;2023-06-22T02:30:39;16.63;;;15.13;;
3369;SDS011;42042;51.948;7.628;2023-06-22T02:33:06;17.27;;;15.57;;
3369;SDS011;42042;51.948;7.628;2023-06-22T02:35:33;15.90;;;14.30;;
3369;SDS011;42042;51.948;7.628;2023-06-22T02:38:03;17.33;;;15.70;;
3369;SDS011;42042;51.948;7.628;2023-06-22T02:40:30;16.90;;;15.33;;
3369;SDS011;42042;51.948;7.628;2023-06-22T02:42:58;17.53;;;15.83;;
3369;SDS011;42042;51.948;7.628;2023-06-22T02:45:27;15.27;;;13.87;;
3369;SDS011;42042;51.948;7.628;2023-06-22T02:47:55;17.63;;;16.00;;
3369;SDS011;42042;51.948;7.628;2023-06-22T02:50:22;15.67;;;14.07;;
3369;SDS011;42042;51.948;7.628;2023-06-22T02:52:49;15.93;;;14.30;;
3369;SDS011;42042;51.948;7.628;2023-06-22T02:55:18;19.47;;;15.60;;
3369;SDS011;42042;51.948;7.628;2023-06-22T02:57:45;15.90;;;14.40;;
3369;SDS011;42042;51.948;7.628;2023-06-22T03:00:13;18.23;;;16.30;;
3369;SDS011;42042;51.948;7.628;2023-06-22T03:02:42;16.40;;;14.90;;
3369;SDS011;42042;51.948;7.628;2023-06-22T03:05:10;18.30;;;16.40;;
3369;SDS011;42042;51.948;7.628;2023-06-22T03:07:38;18.93;;;16.53;;
3369;SDS011;42042;51.948;7.628;2023-06-22T03:10:07;17.80;;;16.20;;
3369;SDS011;42042;51.948;7.628;2023-06-22T03:12:36;16.93;;;15.33;;
3369;SDS011;42042;51.948;7.628;2023-06-22T03:15:04;18.03;;;16.27;;
3369;SDS011;42042;51.948;7.628;2023-06-22T03:17:31;18.23;;;16.33;;
3369;SDS011;42042;51.948;7.628;2023-06-22T03:19:59;20.40;;;15.87;;
3369;SDS011;42042;51.948;7.628;2023-06-22T03:22:26;20.70;;;16.40;;
3369;SDS011;42042;51.948;7.628;2023-06-22T03:24:53;17.77;;;16.07;;
3369;SDS011;42042;51.948;7.628;2023-06-22T03:27:20;18.17;;;16.20;;
3369;SDS011;42042;51.948;7.628;2023-06-22T03:29:49;20.63;;;17.43;;
3369;SDS011;42042;51.948;7.628;2023-06-22T03:32:16;18.60;;;16.80;;
3369;SDS011;42042;51.948;7.628;2023-06-22T03:34:43;18.73;;;16.80;;
3369;SDS011;42042;51.948;7.628;2023-06-22T03:37:12;17.93;;;16.33;;
3369;SDS011;42042;51.948;7.628;2023-06-22T03:39:39;18.37;;;16.47;;
3369;SDS011;42042;51.948;7.628;2023-06-22T03:42:06;19.47;;;16.60;;
3369;SDS011;42042;51.948;7.628;2023-06-22T03:44:33;18.70;;;16.63;;
3369;SDS011;42042;51.948;7.628;2023-06-22T03:47:03;17.23;;;15.17;;
3369;SDS011;42042;51.948;7.628;2023-06-22T03:49:32;21.47;;;17.33;;
3369;SDS011;42042;51.948;7.628;2023-06-22T03:51:59;17.97;;;16.37;;
3369;SDS011;42042;51.948;7.628;2023-06-22T03:54:27;17.40;;;15.70;;
3369;SDS011;42042;51.948;7.628;2023-06-22T03:56:55;21.40;;;19.10;;
3369;SDS011;42042;51.948;7.628;2023-06-22T03:59:23;18.30;;;16.50;;
3369;SDS011;42042;51.948;7.628;2023-06-22T04:01:50;19.30;;;17.50;;
3369;SDS011;42042;51.948;7.628;2023-06-22T04:04:19;18.33;;;16.50;;
3369;SDS011;42042;51.948;7.628;2023-06-22T04:06:46;16.90;;;15.23;;
3369;SDS011;42042;51.948;7.628;2023-06-22T04:09:13;17.60;;;15.90;;
3369;SDS011;42042;51.948;7.628;2023-06-22T04:11:41;17.90;;;16.10;;
3369;SDS011;42042;51.948;7.628;2023-06-22T04:14:08;20.27;;;16.00;;
3369;SDS011;42042;51.948;7.628;2023-06-22T04:16:35;16.67;;;15.07;;
3369;SDS011;42042;51.948;7.628;2023-06-22T04:19:02;17.40;;;15.67;;
3369;SDS011;42042;51.948;7.628;2023-06-22T04:21:31;17.10;;;15.50;;
3369;SDS011;42042;51.948;7.628;2023-06-22T04:23:58;17.20;;;15.50;;
3369;SDS011;42042;51.948;7.628;2023-06-22T04:26:25;18.07;;;15.57;;
3369;SDS011;42042;51.948;7.628;2023-06-22T04:28:52;18.53;;;15.37;;
3369;SDS011;42042;51.948;7.628;2023-06-22T04:31:20;16.87;;;15.27;;
3369;SDS011;42042;51.948;7.628;2023-06-22T04:33:57;17.10;;;15.30;;
3369;SDS011;42042;51.948;7.628;2023-06-22T04:36:31;16.27;;;14.60;;
3369;SDS011;42042;51.948;7.628;2023-06-22T04:39:02;16.10;;;14.50;;
3369;SDS011;42042;51.948;7.628;2023-06-22T04:41:29;16.43;;;14.80;;
3369;SDS011;42042;51.948;7.628;2023-06-22T04:44:07;15.90;;;14.50;;
3369;SDS011;42042;51.948;7.628;2023-06-22T04:46:35;18.97;;;15.33;;
3369;SDS011;42042;51.948;7.628;2023-06-22T04:49:03;17.73;;;16.00;;
3369;SDS011;42042;51.948;7.628;2023-06-22T04:51:32;16.63;;;15.00;;
3369;SDS011;42042;51.948;7.628;2023-06-22T04:53:59;15.77;;;14.17;;
3369;SDS011;42042;51.948;7.628;2023-06-22T04:56:27;17.63;;;14.60;;
3369;SDS011;42042;51.948;7.628;2023-06-22T04:58:54;15.83;;;14.40;;
3369;SDS011;42042;51.948;7.628;2023-06-22T05:01:22;15.17;;;13.70;;
3369;SDS011;42042;51.948;7.628;2023-06-22T05:03:50;16.40;;;13.23;;
3369;SDS011;42042;51.948;7.628;2023-06-22T05:06:20;18.13;;;14.00;;
3369;SDS011;42042;51.948;7.628;2023-06-22T05:08:50;14.77;;;13.27;;
3369;SDS011;42042;51.948;7.628;2023-06-22T05:11:18;15.10;;;13.60;;
3369;SDS011;42042;51.948;7.628;2023-06-22T05:13:45;14.73;;;12.97;;
3369;SDS011;42042;51.948;7.628;2023-06-22T05:16:12;14.87;;;13.37;;
3369;SDS011;42042;51.948;7.628;2023-06-22T05:18:39;14.80;;;13.30;;
3369;SDS011;42042;51.948;7.628;2023-06-22T05:21:08;14.07;;;12.67;;
3369;SDS011;42042;51.948;7.628;2023-06-22T05:23:35;14.20;;;12.90;;
3369;SDS011;42042;51.948;7.628;2023-06-22T05:26:04;15.40;;;13.90;;
3369;SDS011;42042;51.948;7.628;2023-06-22T05:28:34;19.43;;;13.87;;
3369;SDS011;42042;51.948;7.628;2023-06-22T05:31:01;27.60;;;22.90;;
3369;SDS011;42042;51.948;7.628;2023-06-22T05:33:29;16.30;;;12.80;;
3369;SDS011;42042;51.948;7.628;2023-06-22T05:35:56;14.77;;;13.37;;
3369;SDS011;42042;51.948;7.628;2023-06-22T05:38:23;13.10;;;11.87;;
3369;SDS011;42042;51.948;7.628;2023-06-22T05:40:50;13.53;;;12.20;;
3369;SDS011;42042;51.948;7.628;2023-06-22T05:43:19;15.80;;;12.67;;
3369;SDS011;42042;51.948;7.628;2023-06-22T05:45:46;14.90;;;13.30;;
3369;SDS011;42042;51.948;7.628;2023-06-22T05:48:13;13.87;;;12.47;;
3369;SDS011;42042;51.948;7.628;2023-06-22T05:50:41;16.37;;;13.90;;
3369;SDS011;42042;51.948;7.628;2023-06-22T05:53:08;13.73;;;12.33;;
3369;SDS011;42042;51.948;7.628;2023-06-22T05:55:35;16.63;;;13.70;;
3369;SDS011;42042;51.948;7.628;2023-06-22T05:58:03;14.23;;;12.47;;
3369;SDS011;42042;51.948;7.628;2023-06-22T06:00:31;15.10;;;11.83;;
3369;SDS011;42042;51.948;7.628;2023-06-22T06:02:58;14.17;;;12.77;;
3369;SDS011;42042;51.948;7.628;2023-06-22T06:05:28;15.33;;;13.17;;
3369;SDS011;42042;51.948;7.628;2023-06-22T06:07:55;15.33;;;12.97;;
3369;SDS011;42042;51.948;7.628;2023-06-22T06:10:22;13.30;;;11.70;;
3369;SDS011;42042;51.948;7.628;2023-06-22T06:12:50;14.67;;;13.33;;
3369;SDS011;42042;51.948;7.628;2023-06-22T06:15:17;15.30;;;13.50;;
3369;SDS011;42042;51.948;7.628;2023-06-22T06:17:46;14.53;;;13.03;;
3369;SDS011;42042;51.948;7.628;2023-06-22T06:20:14;18.27;;;12.27;;
3369;SDS011;42042;51.948;7.628;2023-06-22T06:22:41;14.00;;;12.03;;
3369;SDS011;42042;51.948;7.628;2023-06-22T06:25:09;15.63;;;13.33;;
3369;SDS011;42042;51.948;7.628;2023-06-22T06:27:43;12.00;;;10.77;;
3369;SDS011;42042;51.948;7.628;2023-06-22T06:30:11;16.20;;;12.40;;
3369;SDS011;42042;51.948;7.628;2023-06-22T06:32:39;14.30;;;12.63;;
3369;SDS011;42042;51.948;7.628;2023-06-22T06:35:08;14.77;;;13.23;;
3369;SDS011;42042;51.948;7.628;2023-06-22T06:37:36;16.90;;;15.20;;
3369;SDS011;42042;51.948;7.628;2023-06-22T06:40:04;13.13;;;11.80;;
3369;SDS011;42042;51.948;7.628;2023-06-22T06:42:33;13.90;;;12.60;;
3369;SDS011;42042;51.948;7.628;2023-06-22T06:45:00;13.40;;;11.80;;
3369;SDS011;42042;51.948;7.628;2023-06-22T06:47:27;14.43;;;12.93;;
3369;SDS011;42042;51.948;7.628;2023-06-22T06:49:54;14.40;;;13.00;;
3369;SDS011;42042;51.948;7.628;2023-06-22T06:52:23;14.50;;;13.20;;
3369;SDS011;42042;51.948;7.628;2023-06-22T06:54:50;12.90;;;11.60;;
3369;SDS011;42042;51.948;7.628;2023-06-22T06:57:17;14.03;;;12.67;;
3369;SDS011;42042;51.948;7.628;2023-06-22T06:59:45;16.60;;;13.33;;
3369;SDS011;42042;51.948;7.628;2023-06-22T07:02:12;13.30;;;12.07;;
3369;SDS011;42042;51.948;7.628;2023-06-22T07:04:39;14.33;;;12.87;;
3369;SDS011;42042;51.948;7.628;2023-06-22T07:07:07;17.40;;;13.37;;
3369;SDS011;42042;51.948;7.628;2023-06-22T07:09:35;17.90;;;13.57;;
3369;SDS011;42042;51.948;7.628;2023-06-22T07:12:03;14.13;;;12.63;;
3369;SDS011;42042;51.948;7.628;2023-06-22T07:14:30;13.93;;;12.53;;
3369;SDS011;42042;51.948;7.628;2023-06-22T07:16:57;16.27;;;12.87;;
3369;SDS011;42042;51.948;7.628;2023-06-22T07:19:24;16.00;;;14.40;;
3369;SDS011;42042;51.948;7.628;2023-06-22T07:21:52;14.47;;;13.03;;
3369;SDS011;42042;51.948;7.628;2023-06-22T07:24:19;14.97;;;13.30;;
3369;SDS011;42042;51.948;7.628;2023-06-22T07:26:48;15.60;;;13.87;;
3369;SDS011;42042;51.948;7.628;2023-06-22T07:29:16;13.87;;;12.53;;
3369;SDS011;42042;51.948;7.628;2023-06-22T07:31:43;18.27;;;13.23;;
3369;SDS011;42042;51.948;7.628;2023-06-22T07:34:10;14.10;;;12.77;;
3369;SDS011;42042;51.948;7.628;2023-06-22T07:36:38;14.43;;;12.90;;
3369;SDS011;42042;51.948;7.628;2023-06-22T07:39:05;20.83;;;14.43;;
3369;SDS011;42042;51.948;7.628;2023-06-22T07:41:32;14.87;;;13.53;;
3369;SDS011;42042;51.948;7.628;2023-06-22T07:44:01;15.57;;;14.10;;
3369;SDS011;42042;51.948;7.628;2023-06-22T07:46:28;16.87;;;15.23;;
3369;SDS011;42042;51.948;7.628;2023-06-22T07:48:56;15.97;;;14.37;;
3369;SDS011;42042;51.948;7.628;2023-06-22T07:51:24;19.77;;;15.53;;
3369;SDS011;42042;51.948;7.628;2023-06-22T07:53:51;14.83;;;13.53;;
3369;SDS011;42042;51.948;7.628;2023-06-22T07:56:19;15.57;;;14.10;;
3369;SDS011;42042;51.948;7.628;2023-06-22T07:58:46;17.20;;;15.13;;
3369;SDS011;42042;51.948;7.628;2023-06-22T08:01:15;18.60;;;15.13;;
3369;SDS011;42042;51.948;7.628;2023-06-22T08:03:44;23.07;;;15.60;;
3369;SDS011;42042;51.948;7.628;2023-06-22T08:06:11;16.60;;;15.00;;
3369;SDS011;42042;51.948;7.628;2023-06-22T08:08:38;18.90;;;15.27;;
3369;SDS011;42042;51.948;7.628;2023-06-22T08:11:07;16.70;;;15.07;;
3369;SDS011;42042;51.948;7.628;2023-06-22T08:13:34;15.80;;;14.40;;
3369;SDS011;42042;51.948;7.628;2023-06-22T08:16:02;15.43;;;14.03;;
3369;SDS011;42042;51.948;7.628;2023-06-22T08:18:30;15.77;;;13.90;;
3369;SDS011;42042;51.948;7.628;2023-06-22T08:20:57;19.83;;;15.73;;
3369;SDS011;42042;51.948;7.628;2023-06-22T08:23:25;16.33;;;14.67;;
3369;SDS011;42042;51.948;7.628;2023-06-22T08:25:52;16.63;;;15.03;;
3369;SDS011;42042;51.948;7.628;2023-06-22T08:28:19;15.60;;;14.10;;
3369;SDS011;42042;51.948;7.628;2023-06-22T08:30:46;16.90;;;15.33;;
3369;SDS011;42042;51.948;7.628;2023-06-22T08:33:13;16.40;;;14.73;;
3369;SDS011;42042;51.948;7.628;2023-06-22T08:35:42;20.30;;;15.10;;
3369;SDS011;42042;51.948;7.628;2023-06-22T08:38:09;21.80;;;15.80;;
3369;SDS011;42042;51.948;7.628;2023-06-22T08:40:40;15.50;;;13.90;;
3369;SDS011;42042;51.948;7.628;2023-06-22T08:43:08;17.40;;;15.53;;
3369;SDS011;42042;51.948;7.628;2023-06-22T08:45:35;24.97;;;15.00;;
3369;SDS011;42042;51.948;7.628;2023-06-22T08:48:02;16.90;;;15.23;;
3369;SDS011;42042;51.948;7.628;2023-06-22T08:50:29;16.53;;;14.83;;
3369;SDS011;42042;51.948;7.628;2023-06-22T08:52:58;17.77;;;14.87;;
3369;SDS011;42042;51.948;7.628;2023-06-22T08:55:25;15.87;;;14.27;;
3369;SDS011;42042;51.948;7.628;2023-06-22T08:57:52;16.40;;;14.50;;
3369;SDS011;42042;51.948;7.628;2023-06-22T09:00:20;18.70;;;15.93;;
3369;SDS011;42042;51.948;7.628;2023-06-22T09:02:47;16.60;;;15.00;;
3369;SDS011;42042;51.948;7.628;2023-06-22T09:05:14;17.83;;;15.33;;
3369;SDS011;42042;51.948;7.628;2023-06-22T09:07:42;17.37;;;15.57;;
3369;SDS011;42042;51.948;7.628;2023-06-22T09:10:11;18.07;;;16.27;;
3369;SDS011;42042;51.948;7.628;2023-06-22T09:12:38;17.23;;;15.53;;
3369;SDS011;42042;51.948;7.628;2023-06-22T09:15:06;16.90;;;15.30;;
3369;SDS011;42042;51.948;7.628;2023-06-22T09:17:33;18.70;;;16.00;;
3369;SDS011;42042;51.948;7.628;2023-06-22T09:20:02;17.83;;;16.00;;
3369;SDS011;42042;51.948;7.628;2023-06-22T09:22:30;19.53;;;16.77;;
3369;SDS011;42042;51.948;7.628;2023-06-22T09:24:58;17.60;;;15.90;;
3369;SDS011;42042;51.948;7.628;2023-06-22T09:27:27;16.37;;;15.00;;
3369;SDS011;42042;51.948;7.628;2023-06-22T09:29:54;17.67;;;15.90;;
3369;SDS011;42042;51.948;7.628;2023-06-22T09:32:23;18.27;;;16.67;;
3369;SDS011;42042;51.948;7.628;2023-06-22T09:34:50;20.40;;;17.20;;
3369;SDS011;42042;51.948;7.628;2023-06-22T09:37:18;17.63;;;15.77;;
3369;SDS011;42042;51.948;7.628;2023-06-22T09:39:45;19.77;;;17.90;;
3369;SDS011;42042;51.948;7.628;2023-06-22T09:42:12;17.10;;;15.50;;
3369;SDS011;42042;51.948;7.628;2023-06-22T09:44:41;22.57;;;16.53;;
3369;SDS011;42042;51.948;7.628;2023-06-22T09:47:08;18.10;;;16.20;;
3369;SDS011;42042;51.948;7.628;2023-06-22T09:49:35;18.83;;;16.43;;
3369;SDS011;42042;51.948;7.628;2023-06-22T09:52:02;18.80;;;16.93;;
3369;SDS011;42042;51.948;7.628;2023-06-22T09:54:30;18.23;;;16.43;;
3369;SDS011;42042;51.948;7.628;2023-06-22T09:56:57;18.23;;;15.80;;
3369;SDS011;42042;51.948;7.628;2023-06-22T09:59:24;17.93;;;16.33;;
3369;SDS011;42042;51.948;7.628;2023-06-22T10:01:53;19.60;;;14.80;;
3369;SDS011;42042;51.948;7.628;2023-06-22T10:04:20;16.77;;;15.23;;
3369;SDS011;42042;51.948;7.628;2023-06-22T10:06:47;16.13;;;14.73;;
3369;SDS011;42042;51.948;7.628;2023-06-22T10:09:14;14.60;;;13.20;;
3369;SDS011;42042;51.948;7.628;2023-06-22T10:11:41;14.90;;;13.50;;
3369;SDS011;42042;51.948;7.628;2023-06-22T10:14:09;14.57;;;13.07;;
3369;SDS011;42042;51.948;7.628;2023-06-22T10:16:36;13.13;;;11.93;;
3369;SDS011;42042;51.948;7.628;2023-06-22T10:19:04;15.70;;;14.10;;
3369;SDS011;42042;51.948;7.628;2023-06-22T10:21:32;18.63;;;13.50;;
3369;SDS011;42042;51.948;7.628;2023-06-22T10:23:59;21.90;;;14.60;;
3369;SDS011;42042;51.948;7.628;2023-06-22T10:26:31;15.20;;;13.70;;
3369;SDS011;42042;51.948;7.628;2023-06-22T10:28:58;16.60;;;14.90;;
3369;SDS011;42042;51.948;7.628;2023-06-22T10:31:25;17.67;;;16.00;;
3369;SDS011;42042;51.948;7.628;2023-06-22T10:33:53;17.33;;;15.63;;
3369;SDS011;42042;51.948;7.628;2023-06-22T10:36:22;16.90;;;15.30;;
3369;SDS011;42042;51.948;7.628;2023-06-22T10:38:49;15.87;;;14.40;;
3369;SDS011;42042;51.948;7.628;2023-06-22T10:41:17;15.87;;;14.33;;
3369;SDS011;42042;51.948;7.628;2023-06-22T10:43:44;16.13;;;14.57;;
3369;SDS011;42042;51.948;7.628;2023-06-22T10:46:12;18.53;;;16.60;;
3369;SDS011;42042;51.948;7.628;2023-06-22T10:48:39;18.57;;;16.07;;
3369;SDS011;42042;51.948;7.628;2023-06-22T10:51:06;16.47;;;14.80;;
3369;SDS011;42042;51.948;7.628;2023-06-22T10:53:35;16.30;;;14.60;;
3369;SDS011;42042;51.948;7.628;2023-06-22T10:56:02;14.77;;;13.57;;
3369;SDS011;42042;51.948;7.628;2023-06-22T10:58:29;15.47;;;14.17;;
3369;SDS011;42042;51.948;7.628;2023-06-22T11:00:57;15.77;;;13.87;;
3369;SDS011;42042;51.948;7.628;2023-06-22T11:03:24;15.50;;;14.20;;
3369;SDS011;42042;51.948;7.628;2023-06-22T11:05:51;17.10;;;15.30;;
3369;SDS011;42042;51.948;7.628;2023-06-22T11:08:19;16.33;;;14.87;;
3369;SDS011;42042;51.948;7.628;2023-06-22T11:10:47;17.83;;;13.80;;
3369;SDS011;42042;51.948;7.628;2023-06-22T11:13:14;17.33;;;14.57;;
3369;SDS011;42042;51.948;7.628;2023-06-22T11:15:41;17.70;;;16.10;;
3369;SDS011;42042;51.948;7.628;2023-06-22T11:18:09;17.30;;;15.73;;
3369;SDS011;42042;51.948;7.628;2023-06-22T11:20:36;16.97;;;15.47;;
3369;SDS011;42042;51.948;7.628;2023-06-22T11:23:05;17.23;;;15.50;;
3369;SDS011;42042;51.948;7.628;2023-06-22T11:25:33;17.33;;;15.23;;
3369;SDS011;42042;51.948;7.628;2023-06-22T11:28:02;14.70;;;13.40;;
3369;SDS011;42042;51.948;7.628;2023-06-22T11:30:29;17.17;;;15.47;;
3369;SDS011;42042;51.948;7.628;2023-06-22T11:32:57;16.43;;;14.87;;
3369;SDS011;42042;51.948;7.628;2023-06-22T11:35:24;17.00;;;15.47;;
3369;SDS011;42042;51.948;7.628;2023-06-22T11:37:51;21.67;;;17.10;;
3369;SDS011;42042;51.948;7.628;2023-06-22T11:40:18;21.10;;;15.43;;
3369;SDS011;42042;51.948;7.628;2023-06-22T11:42:45;18.20;;;16.37;;
3369;SDS011;42042;51.948;7.628;2023-06-22T11:45:14;18.40;;;16.70;;
3369;SDS011;42042;51.948;7.628;2023-06-22T11:47:42;17.80;;;16.00;;
3369;SDS011;42042;51.948;7.628;2023-06-22T11:50:09;19.10;;;17.00;;
3369;SDS011;42042;51.948;7.628;2023-06-22T11:52:37;17.43;;;15.73;;
3369;SDS011;42042;51.948;7.628;2023-06-22T11:55:04;17.70;;;15.63;;
3369;SDS011;42042;51.948;7.628;2023-06-22T11:57:32;21.30;;;18.20;;
3369;SDS011;42042;51.948;7.628;2023-06-22T12:00:00;19.27;;;17.40;;
3369;SDS011;42042;51.948;7.628;2023-06-22T12:02:32;16.90;;;15.37;;
3369;SDS011;42042;51.948;7.628;2023-06-22T12:04:59;15.70;;;14.23;;
3369;SDS011;42042;51.948;7.628;2023-06-22T12:07:30;17.80;;;15.90;;
3369;SDS011;42042;51.948;7.628;2023-06-22T12:09:57;16.60;;;15.10;;
3369;SDS011;42042;51.948;7.628;2023-06-22T12:12:24;19.67;;;14.57;;
3369;SDS011;42042;51.948;7.628;2023-06-22T12:14:51;15.80;;;14.30;;
3369;SDS011;42042;51.948;7.628;2023-06-22T12:17:18;19.70;;;16.70;;
3369;SDS011;42042;51.948;7.628;2023-06-22T12:19:47;20.10;;;16.60;;
3369;SDS011;42042;51.948;7.628;2023-06-22T12:22:15;18.20;;;16.53;;
3369;SDS011;42042;51.948;7.628;2023-06-22T12:24:42;16.53;;;14.93;;
3369;SDS011;42042;51.948;7.628;2023-06-22T12:27:09;17.67;;;15.97;;
3369;SDS011;42042;51.948;7.628;2023-06-22T12:29:36;18.40;;;16.60;;
3369;SDS011;42042;51.948;7.628;2023-06-22T12:32:04;18.20;;;16.50;;
3369;SDS011;42042;51.948;7.628;2023-06-22T12:34:31;20.27;;;18.23;;
3369;SDS011;42042;51.948;7.628;2023-06-22T12:37:00;18.43;;;16.30;;
3369;SDS011;42042;51.948;7.628;2023-06-22T12:39:27;20.70;;;16.60;;
3369;SDS011;42042;51.948;7.628;2023-06-22T12:41:54;21.10;;;16.77;;
3369;SDS011;42042;51.948;7.628;2023-06-22T12:44:21;18.30;;;16.70;;
3369;SDS011;42042;51.948;7.628;2023-06-22T12:46:48;22.20;;;16.97;;
3369;SDS011;42042;51.948;7.628;2023-06-22T12:49:16;18.63;;;16.83;;
3369;SDS011;42042;51.948;7.628;2023-06-22T12:51:43;19.20;;;17.30;;
3369;SDS011;42042;51.948;7.628;2023-06-22T12:54:12;18.37;;;16.60;;
3369;SDS011;42042;51.948;7.628;2023-06-22T12:56:39;21.40;;;19.20;;
3369;SDS011;42042;51.948;7.628;2023-06-22T12:59:08;21.30;;;19.37;;
3369;SDS011;42042;51.948;7.628;2023-06-22T13:01:36;22.20;;;20.10;;
3369;SDS011;42042;51.948;7.628;2023-06-22T13:04:03;23.17;;;20.83;;
3369;SDS011;42042;51.948;7.628;2023-06-22T13:06:30;22.70;;;20.30;;
3369;SDS011;42042;51.948;7.628;2023-06-22T13:08:57;25.30;;;22.67;;
3369;SDS011;42042;51.948;7.628;2023-06-22T13:11:26;26.10;;;21.70;;
3369;SDS011;42042;51.948;7.628;2023-06-22T13:13:53;26.40;;;23.90;;
3369;SDS011;42042;51.948;7.628;2023-06-22T13:16:20;24.67;;;22.07;;
3369;SDS011;42042;51.948;7.628;2023-06-22T13:18:47;28.33;;;25.67;;
3369;SDS011;42042;51.948;7.628;2023-06-22T13:21:14;28.33;;;23.70;;
3369;SDS011;42042;51.948;7.628;2023-06-22T13:23:42;25.90;;;23.40;;
3369;SDS011;42042;51.948;7.628;2023-06-22T13:26:09;27.57;;;24.97;;
3369;SDS011;42042;51.948;7.628;2023-06-22T13:28:37;30.43;;;26.07;;
3369;SDS011;42042;51.948;7.628;2023-06-22T13:31:05;29.47;;;24.97;;
3369;SDS011;42042;51.948;7.628;2023-06-22T13:33:32;27.80;;;25.20;;
3369;SDS011;42042;51.948;7.628;2023-06-22T13:35:59;29.73;;;26.70;;
3369;SDS011;42042;51.948;7.628;2023-06-22T13:38:28;29.67;;;26.87;;
3369;SDS011;42042;51.948;7.628;2023-06-22T13:40:56;28.57;;;25.97;;
3369;SDS011;42042;51.948;7.628;2023-06-22T13:43:26;34.10;;;30.83;;
3369;SDS011;42042;51.948;7.628;2023-06-22T13:45:55;29.93;;;27.07;;
3369;SDS011;42042;51.948;7.628;2023-06-22T13:48:22;27.07;;;24.57;;
3369;SDS011;42042;51.948;7.628;2023-06-22T13:50:51;28.27;;;25.30;;
3369;SDS011;42042;51.948;7.628;2023-06-22T13:53:18;28.17;;;25.53;;
3369;SDS011;42042;51.948;7.628;2023-06-22T13:55:45;31.00;;;28.00;;
3369;SDS011;42042;51.948;7.628;2023-06-22T13:58:12;28.27;;;25.57;;
3369;SDS011;42042;51.948;7.628;2023-06-22T14:00:40;27.33;;;24.50;;
3369;SDS011;42042;51.948;7.628;2023-06-22T14:03:08;30.27;;;26.70;;
3369;SDS011;42042;51.948;7.628;2023-06-22T14:05:35;26.57;;;23.03;;
3369;SDS011;42042;51.948;7.628;2023-06-22T14:08:03;25.80;;;23.20;;
3369;SDS011;42042;51.948;7.628;2023-06-22T14:10:30;25.43;;;23.03;;
3369;SDS011;42042;51.948;7.628;2023-06-22T14:12:57;26.53;;;24.03;;
3369;SDS011;42042;51.948;7.628;2023-06-22T14:15:25;26.30;;;23.70;;
3369;SDS011;42042;51.948;7.628;2023-06-22T14:17:52;27.27;;;24.87;;
3369;SDS011;42042;51.948;7.628;2023-06-22T14:20:20;25.00;;;22.70;;
3369;SDS011;42042;51.948;7.628;2023-06-22T14:22:48;26.67;;;24.07;;
3369;SDS011;42042;51.948;7.628;2023-06-22T14:25:15;22.47;;;20.37;;
3369;SDS011;42042;51.948;7.628;2023-06-22T14:27:42;20.90;;;19.00;;
3369;SDS011;42042;51.948;7.628;2023-06-22T14:30:09;20.00;;;18.00;;
3369;SDS011;42042;51.948;7.628;2023-06-22T14:32:37;19.07;;;17.17;;
3369;SDS011;42042;51.948;7.628;2023-06-22T14:35:04;22.83;;;20.57;;
3369;SDS011;42042;51.948;7.628;2023-06-22T14:37:33;20.37;;;18.27;;